sensor_id;sensor_type;location;lat;lon;timestamp;pressure;altitude;pressure_sealevel;temperature;humidity
68941;BME280;55982;51.476;7.552;2022-11-24T00:00:31;98568.78;;;8.47;100.00
68941;BME280;55982;51.476;7.552;2022-11-24T00:02:57;98580.75;;;8.51;100.00
68941;BME280;55982;51.476;7.552;2022-11-24T00:05:22;98573.16;;;8.47;100.00
68941;BME280;55982;51.476;7.552;2022-11-24T00:07:47;98586.38;;;8.42;100.00
68941;BME280;55982;51.476;7.552;2022-11-24T00:10:13;98587.50;;;8.37;100.00
68941;BME280;55982;51.476;7.552;2022-11-24T00:12:38;98584.81;;;8.38;100.00
68941;BME280;55982;51.476;7.552;2022-11-24T00:15:04;98593.81;;;8.31;100.00
68941;BME280;55982;51.476;7.552;2022-11-24T00:17:30;98593.13;;;8.27;100.00
68941;BME280;55982;51.476;7.552;2022-11-24T00:19:56;98590.16;;;8.35;100.00
68941;BME280;55982;51.476;7.552;2022-11-24T00:22:21;98588.59;;;8.31;100.00
68941;BME280;55982;51.476;7.552;2022-11-24T00:24:46;98592.38;;;8.24;100.00
68941;BME280;55982;51.476;7.552;2022-11-24T00:27:12;98588.38;;;8.15;100.00
68941;BME280;55982;51.476;7.552;2022-11-24T00:29:37;98593.00;;;8.09;100.00
68941;BME280;55982;51.476;7.552;2022-11-24T00:32:03;98588.84;;;8.05;100.00
68941;BME280;55982;51.476;7.552;2022-11-24T00:34:30;98589.75;;;8.04;100.00
68941;BME280;55982;51.476;7.552;2022-11-24T00:36:58;98588.59;;;7.91;100.00
68941;BME280;55982;51.476;7.552;2022-11-24T00:39:24;98592.34;;;7.84;100.00
68941;BME280;55982;51.476;7.552;2022-11-24T00:41:50;98594.06;;;7.85;100.00
68941;BME280;55982;51.476;7.552;2022-11-24T00:44:15;98597.44;;;7.87;100.00
68941;BME280;55982;51.476;7.552;2022-11-24T00:46:40;98595.22;;;7.78;100.00
68941;BME280;55982;51.476;7.552;2022-11-24T00:49:06;98610.06;;;7.76;100.00
68941;BME280;55982;51.476;7.552;2022-11-24T00:51:32;98589.41;;;7.71;100.00
68941;BME280;55982;51.476;7.552;2022-11-24T00:53:58;98600.63;;;7.73;100.00
68941;BME280;55982;51.476;7.552;2022-11-24T00:56:26;98600.69;;;7.72;100.00
68941;BME280;55982;51.476;7.552;2022-11-24T00:58:52;98598.06;;;7.72;100.00
68941;BME280;55982;51.476;7.552;2022-11-24T01:01:22;98606.69;;;7.74;100.00
68941;BME280;55982;51.476;7.552;2022-11-24T01:03:49;98604.84;;;7.76;100.00
68941;BME280;55982;51.476;7.552;2022-11-24T01:06:19;98620.59;;;7.73;100.00
68941;BME280;55982;51.476;7.552;2022-11-24T01:08:46;98615.44;;;7.71;100.00
68941;BME280;55982;51.476;7.552;2022-11-24T01:11:15;98620.03;;;7.65;100.00
68941;BME280;55982;51.476;7.552;2022-11-24T01:13:43;98619.75;;;7.72;100.00
68941;BME280;55982;51.476;7.552;2022-11-24T01:16:27;98628.53;;;7.70;100.00
68941;BME280;55982;51.476;7.552;2022-11-24T01:18:53;98628.94;;;7.59;100.00
68941;BME280;55982;51.476;7.552;2022-11-24T01:21:19;98622.34;;;7.72;100.00
68941;BME280;55982;51.476;7.552;2022-11-24T01:23:45;98616.16;;;7.75;100.00
68941;BME280;55982;51.476;7.552;2022-11-24T01:26:12;98616.94;;;7.77;100.00
68941;BME280;55982;51.476;7.552;2022-11-24T01:28:38;98631.53;;;7.81;100.00
68941;BME280;55982;51.476;7.552;2022-11-24T01:31:05;98622.41;;;7.71;100.00
68941;BME280;55982;51.476;7.552;2022-11-24T01:33:32;98627.84;;;7.65;100.00
68941;BME280;55982;51.476;7.552;2022-11-24T01:35:58;98634.84;;;7.64;100.00
68941;BME280;55982;51.476;7.552;2022-11-24T01:38:24;98630.59;;;7.62;100.00
68941;BME280;55982;51.476;7.552;2022-11-24T01:41:03;98633.31;;;7.59;100.00
68941;BME280;55982;51.476;7.552;2022-11-24T01:43:29;98640.44;;;7.54;100.00
68941;BME280;55982;51.476;7.552;2022-11-24T01:45:54;98635.78;;;7.62;100.00
68941;BME280;55982;51.476;7.552;2022-11-24T01:48:29;98641.13;;;7.59;100.00
68941;BME280;55982;51.476;7.552;2022-11-24T01:51:07;98637.19;;;7.49;100.00
68941;BME280;55982;51.476;7.552;2022-11-24T01:53:34;98633.91;;;7.65;100.00
68941;BME280;55982;51.476;7.552;2022-11-24T01:56:01;98636.59;;;7.64;100.00
68941;BME280;55982;51.476;7.552;2022-11-24T01:58:29;98643.78;;;7.57;100.00
68941;BME280;55982;51.476;7.552;2022-11-24T02:00:56;98631.50;;;7.61;100.00
68941;BME280;55982;51.476;7.552;2022-11-24T02:03:26;98632.94;;;7.68;100.00
68941;BME280;55982;51.476;7.552;2022-11-24T02:08:41;98645.72;;;7.74;100.00
68941;BME280;55982;51.476;7.552;2022-11-24T02:11:09;98647.88;;;7.63;100.00
68941;BME280;55982;51.476;7.552;2022-11-24T02:13:35;98649.19;;;7.53;100.00
68941;BME280;55982;51.476;7.552;2022-11-24T02:16:04;98659.34;;;7.59;100.00
68941;BME280;55982;51.476;7.552;2022-11-24T02:18:29;98652.56;;;7.55;100.00
68941;BME280;55982;51.476;7.552;2022-11-24T02:20:55;98648.94;;;7.59;100.00
68941;BME280;55982;51.476;7.552;2022-11-24T02:28:51;98657.16;;;7.70;100.00
68941;BME280;55982;51.476;7.552;2022-11-24T02:31:16;98650.72;;;7.78;100.00
68941;BME280;55982;51.476;7.552;2022-11-24T02:33:42;98652.91;;;7.89;100.00
68941;BME280;55982;51.476;7.552;2022-11-24T02:36:08;98663.19;;;7.92;100.00
68941;BME280;55982;51.476;7.552;2022-11-24T02:38:34;98657.72;;;7.98;100.00
68941;BME280;55982;51.476;7.552;2022-11-24T02:41:04;98653.03;;;8.06;100.00
68941;BME280;55982;51.476;7.552;2022-11-24T02:43:35;98656.97;;;8.16;100.00
68941;BME280;55982;51.476;7.552;2022-11-24T02:46:02;98663.06;;;8.15;100.00
68941;BME280;55982;51.476;7.552;2022-11-24T02:48:27;98666.06;;;8.06;100.00
68941;BME280;55982;51.476;7.552;2022-11-24T02:50:53;98667.09;;;8.02;100.00
68941;BME280;55982;51.476;7.552;2022-11-24T02:53:18;98675.78;;;8.02;100.00
68941;BME280;55982;51.476;7.552;2022-11-24T02:55:44;98679.47;;;7.97;100.00
68941;BME280;55982;51.476;7.552;2022-11-24T02:58:09;98687.16;;;8.00;100.00
68941;BME280;55982;51.476;7.552;2022-11-24T03:00:34;98687.03;;;8.03;100.00
68941;BME280;55982;51.476;7.552;2022-11-24T03:02:59;98681.56;;;8.09;100.00
68941;BME280;55982;51.476;7.552;2022-11-24T03:05:25;98682.22;;;8.14;100.00
68941;BME280;55982;51.476;7.552;2022-11-24T03:07:50;98689.78;;;8.20;100.00
68941;BME280;55982;51.476;7.552;2022-11-24T03:10:16;98679.47;;;8.17;100.00
68941;BME280;55982;51.476;7.552;2022-11-24T03:12:41;98682.66;;;8.25;100.00
68941;BME280;55982;51.476;7.552;2022-11-24T03:15:07;98691.13;;;8.30;100.00
68941;BME280;55982;51.476;7.552;2022-11-24T03:17:33;98686.50;;;8.37;100.00
68941;BME280;55982;51.476;7.552;2022-11-24T03:19:58;98690.59;;;8.42;100.00
68941;BME280;55982;51.476;7.552;2022-11-24T03:22:26;98694.00;;;8.44;100.00
68941;BME280;55982;51.476;7.552;2022-11-24T03:24:51;98699.09;;;8.47;100.00
68941;BME280;55982;51.476;7.552;2022-11-24T03:27:17;98693.66;;;8.52;100.00
68941;BME280;55982;51.476;7.552;2022-11-24T03:29:42;98692.81;;;8.51;100.00
68941;BME280;55982;51.476;7.552;2022-11-24T03:32:08;98688.94;;;8.41;100.00
68941;BME280;55982;51.476;7.552;2022-11-24T03:34:33;98690.06;;;8.34;100.00
68941;BME280;55982;51.476;7.552;2022-11-24T03:36:58;98703.34;;;8.28;100.00
68941;BME280;55982;51.476;7.552;2022-11-24T03:39:24;98696.63;;;8.22;100.00
68941;BME280;55982;51.476;7.552;2022-11-24T03:41:49;98698.66;;;8.16;100.00
68941;BME280;55982;51.476;7.552;2022-11-24T03:44:16;98700.31;;;8.17;100.00
68941;BME280;55982;51.476;7.552;2022-11-24T03:46:41;98692.72;;;8.12;100.00
68941;BME280;55982;51.476;7.552;2022-11-24T03:49:06;98693.00;;;8.05;100.00
68941;BME280;55982;51.476;7.552;2022-11-24T03:51:32;98695.28;;;7.92;100.00
68941;BME280;55982;51.476;7.552;2022-11-24T03:53:57;98699.53;;;7.95;100.00
68941;BME280;55982;51.476;7.552;2022-11-24T03:56:22;98703.56;;;8.02;100.00
68941;BME280;55982;51.476;7.552;2022-11-24T03:58:48;98692.09;;;8.06;100.00
68941;BME280;55982;51.476;7.552;2022-11-24T04:01:14;98702.66;;;8.03;100.00
68941;BME280;55982;51.476;7.552;2022-11-24T04:03:39;98704.03;;;8.11;100.00
68941;BME280;55982;51.476;7.552;2022-11-24T04:06:05;98704.03;;;8.11;100.00
68941;BME280;55982;51.476;7.552;2022-11-24T04:08:30;98712.81;;;8.09;100.00
68941;BME280;55982;51.476;7.552;2022-11-24T04:10:55;98719.19;;;8.02;100.00
68941;BME280;55982;51.476;7.552;2022-11-24T04:13:22;98720.94;;;8.01;100.00
68941;BME280;55982;51.476;7.552;2022-11-24T04:15:48;98716.72;;;7.99;100.00
68941;BME280;55982;51.476;7.552;2022-11-24T04:18:14;98726.75;;;8.08;100.00
68941;BME280;55982;51.476;7.552;2022-11-24T04:20:40;98721.41;;;8.11;100.00
68941;BME280;55982;51.476;7.552;2022-11-24T04:23:06;98725.28;;;8.22;100.00
68941;BME280;55982;51.476;7.552;2022-11-24T04:25:32;98729.75;;;8.19;100.00
68941;BME280;55982;51.476;7.552;2022-11-24T04:27:57;98734.59;;;8.29;100.00
68941;BME280;55982;51.476;7.552;2022-11-24T04:30:24;98737.91;;;8.33;100.00
68941;BME280;55982;51.476;7.552;2022-11-24T04:32:50;98736.19;;;8.32;100.00
68941;BME280;55982;51.476;7.552;2022-11-24T04:35:15;98732.63;;;8.35;100.00
68941;BME280;55982;51.476;7.552;2022-11-24T04:37:41;98737.75;;;8.36;100.00
68941;BME280;55982;51.476;7.552;2022-11-24T04:40:07;98739.59;;;8.34;100.00
68941;BME280;55982;51.476;7.552;2022-11-24T04:42:33;98741.53;;;8.29;100.00
68941;BME280;55982;51.476;7.552;2022-11-24T04:44:59;98747.34;;;8.36;100.00
68941;BME280;55982;51.476;7.552;2022-11-24T04:47:25;98753.41;;;8.36;100.00
68941;BME280;55982;51.476;7.552;2022-11-24T04:49:50;98761.41;;;8.32;100.00
68941;BME280;55982;51.476;7.552;2022-11-24T04:52:17;98759.09;;;8.24;100.00
68941;BME280;55982;51.476;7.552;2022-11-24T04:54:44;98757.63;;;8.17;100.00
68941;BME280;55982;51.476;7.552;2022-11-24T04:57:29;98766.59;;;8.10;100.00
68941;BME280;55982;51.476;7.552;2022-11-24T04:59:55;98782.09;;;8.13;100.00
68941;BME280;55982;51.476;7.552;2022-11-24T05:02:21;98769.75;;;8.18;100.00
68941;BME280;55982;51.476;7.552;2022-11-24T05:04:46;98778.72;;;8.11;100.00
68941;BME280;55982;51.476;7.552;2022-11-24T05:07:14;98782.47;;;8.04;100.00
68941;BME280;55982;51.476;7.552;2022-11-24T05:09:39;98782.72;;;7.98;100.00
68941;BME280;55982;51.476;7.552;2022-11-24T05:12:25;98786.47;;;7.91;100.00
68941;BME280;55982;51.476;7.552;2022-11-24T05:14:58;98790.81;;;7.90;100.00
68941;BME280;55982;51.476;7.552;2022-11-24T05:17:27;98798.75;;;7.87;100.00
68941;BME280;55982;51.476;7.552;2022-11-24T05:19:52;98796.16;;;7.87;100.00
68941;BME280;55982;51.476;7.552;2022-11-24T05:22:18;98800.59;;;7.85;100.00
68941;BME280;55982;51.476;7.552;2022-11-24T05:24:43;98797.84;;;7.88;100.00
68941;BME280;55982;51.476;7.552;2022-11-24T05:27:08;98811.00;;;7.85;100.00
68941;BME280;55982;51.476;7.552;2022-11-24T05:29:34;98815.41;;;7.83;100.00
68941;BME280;55982;51.476;7.552;2022-11-24T05:31:59;98807.53;;;7.85;100.00
68941;BME280;55982;51.476;7.552;2022-11-24T05:34:25;98811.78;;;7.87;100.00
68941;BME280;55982;51.476;7.552;2022-11-24T05:36:50;98815.34;;;7.85;100.00
68941;BME280;55982;51.476;7.552;2022-11-24T05:39:19;98826.53;;;7.87;100.00
68941;BME280;55982;51.476;7.552;2022-11-24T05:41:45;98829.94;;;7.89;100.00
68941;BME280;55982;51.476;7.552;2022-11-24T05:44:10;98826.53;;;7.87;100.00
68941;BME280;55982;51.476;7.552;2022-11-24T05:46:36;98824.75;;;7.89;100.00
68941;BME280;55982;51.476;7.552;2022-11-24T05:49:02;98825.53;;;7.91;100.00
68941;BME280;55982;51.476;7.552;2022-11-24T05:51:27;98829.59;;;7.98;100.00
68941;BME280;55982;51.476;7.552;2022-11-24T05:53:53;98834.69;;;8.01;100.00
68941;BME280;55982;51.476;7.552;2022-11-24T05:56:18;98842.44;;;8.02;100.00
68941;BME280;55982;51.476;7.552;2022-11-24T05:58:43;98837.94;;;8.06;100.00
68941;BME280;55982;51.476;7.552;2022-11-24T06:01:09;98843.28;;;8.03;100.00
68941;BME280;55982;51.476;7.552;2022-11-24T06:03:34;98846.91;;;7.99;100.00
68941;BME280;55982;51.476;7.552;2022-11-24T06:05:59;98837.41;;;7.98;100.00
68941;BME280;55982;51.476;7.552;2022-11-24T06:08:25;98853.94;;;7.97;100.00
68941;BME280;55982;51.476;7.552;2022-11-24T06:10:50;98852.91;;;8.01;100.00
68941;BME280;55982;51.476;7.552;2022-11-24T06:13:15;98846.78;;;8.02;100.00
68941;BME280;55982;51.476;7.552;2022-11-24T06:15:41;98856.31;;;8.03;100.00
68941;BME280;55982;51.476;7.552;2022-11-24T06:18:06;98854.78;;;7.97;100.00
68941;BME280;55982;51.476;7.552;2022-11-24T06:20:31;98865.94;;;8.01;100.00
68941;BME280;55982;51.476;7.552;2022-11-24T06:22:57;98861.56;;;8.01;100.00
68941;BME280;55982;51.476;7.552;2022-11-24T06:25:23;98870.09;;;8.05;100.00
68941;BME280;55982;51.476;7.552;2022-11-24T06:27:48;98874.53;;;8.03;100.00
68941;BME280;55982;51.476;7.552;2022-11-24T06:30:14;98867.63;;;8.02;100.00
68941;BME280;55982;51.476;7.552;2022-11-24T06:32:39;98883.13;;;8.05;100.00
68941;BME280;55982;51.476;7.552;2022-11-24T06:35:10;98879.63;;;8.06;100.00
68941;BME280;55982;51.476;7.552;2022-11-24T06:37:36;98876.09;;;8.07;100.00
68941;BME280;55982;51.476;7.552;2022-11-24T06:40:01;98870.88;;;8.07;100.00
68941;BME280;55982;51.476;7.552;2022-11-24T06:42:27;98882.91;;;8.11;100.00
68941;BME280;55982;51.476;7.552;2022-11-24T06:44:52;98874.19;;;8.12;100.00
68941;BME280;55982;51.476;7.552;2022-11-24T06:47:17;98885.56;;;8.09;100.00
68941;BME280;55982;51.476;7.552;2022-11-24T06:49:43;98889.91;;;8.09;100.00
68941;BME280;55982;51.476;7.552;2022-11-24T06:52:08;98887.81;;;8.18;100.00
68941;BME280;55982;51.476;7.552;2022-11-24T06:54:33;98887.63;;;8.23;100.00
68941;BME280;55982;51.476;7.552;2022-11-24T06:56:59;98894.78;;;8.18;100.00
68941;BME280;55982;51.476;7.552;2022-11-24T06:59:25;98899.22;;;8.16;100.00
68941;BME280;55982;51.476;7.552;2022-11-24T07:01:51;98900.72;;;8.21;100.00
68941;BME280;55982;51.476;7.552;2022-11-24T07:04:17;98904.66;;;8.33;100.00
68941;BME280;55982;51.476;7.552;2022-11-24T07:06:43;98901.34;;;8.28;100.00
68941;BME280;55982;51.476;7.552;2022-11-24T07:09:10;98905.84;;;8.24;100.00
68941;BME280;55982;51.476;7.552;2022-11-24T07:11:36;98912.53;;;8.32;100.00
68941;BME280;55982;51.476;7.552;2022-11-24T07:14:02;98916.75;;;8.34;100.00
68941;BME280;55982;51.476;7.552;2022-11-24T07:16:28;98921.25;;;8.30;100.00
68941;BME280;55982;51.476;7.552;2022-11-24T07:18:54;98922.91;;;8.33;100.00
68941;BME280;55982;51.476;7.552;2022-11-24T07:21:21;98929.69;;;8.37;100.00
68941;BME280;55982;51.476;7.552;2022-11-24T07:23:50;98932.41;;;8.34;100.00
68941;BME280;55982;51.476;7.552;2022-11-24T07:26:16;98927.09;;;8.37;100.00
68941;BME280;55982;51.476;7.552;2022-11-24T07:28:41;98937.75;;;8.31;100.00
68941;BME280;55982;51.476;7.552;2022-11-24T07:31:12;98939.09;;;8.41;100.00
68941;BME280;55982;51.476;7.552;2022-11-24T07:33:38;98944.31;;;8.41;100.00
68941;BME280;55982;51.476;7.552;2022-11-24T07:36:05;98945.19;;;8.40;100.00
68941;BME280;55982;51.476;7.552;2022-11-24T07:38:32;98945.88;;;8.45;100.00
68941;BME280;55982;51.476;7.552;2022-11-24T07:41:02;98949.28;;;8.47;100.00
68941;BME280;55982;51.476;7.552;2022-11-24T07:43:31;98953.72;;;8.45;100.00
68941;BME280;55982;51.476;7.552;2022-11-24T07:45:56;98955.53;;;8.43;100.00
68941;BME280;55982;51.476;7.552;2022-11-24T07:48:22;98964.16;;;8.44;100.00
68941;BME280;55982;51.476;7.552;2022-11-24T07:50:48;98960.03;;;8.38;100.00
68941;BME280;55982;51.476;7.552;2022-11-24T07:53:13;98968.66;;;8.40;100.00
68941;BME280;55982;51.476;7.552;2022-11-24T07:55:38;98979.69;;;8.47;100.00
68941;BME280;55982;51.476;7.552;2022-11-24T07:58:04;98995.22;;;8.50;100.00
68941;BME280;55982;51.476;7.552;2022-11-24T08:00:29;98985.22;;;8.61;100.00
68941;BME280;55982;51.476;7.552;2022-11-24T08:02:54;98991.97;;;8.66;100.00
68941;BME280;55982;51.476;7.552;2022-11-24T08:05:20;98990.16;;;8.68;100.00
68941;BME280;55982;51.476;7.552;2022-11-24T08:07:45;98987.50;;;8.70;100.00
68941;BME280;55982;51.476;7.552;2022-11-24T08:10:11;99000.47;;;8.71;100.00
68941;BME280;55982;51.476;7.552;2022-11-24T08:12:36;99007.34;;;8.72;100.00
68941;BME280;55982;51.476;7.552;2022-11-24T08:15:02;99010.81;;;8.73;100.00
68941;BME280;55982;51.476;7.552;2022-11-24T08:17:28;99014.28;;;8.73;100.00
68941;BME280;55982;51.476;7.552;2022-11-24T08:19:53;99019.28;;;8.79;100.00
68941;BME280;55982;51.476;7.552;2022-11-24T08:22:19;99022.19;;;8.72;100.00
68941;BME280;55982;51.476;7.552;2022-11-24T08:24:44;99021.16;;;8.76;100.00
68941;BME280;55982;51.476;7.552;2022-11-24T08:27:13;99021.97;;;8.76;100.00
68941;BME280;55982;51.476;7.552;2022-11-24T08:29:39;99025.28;;;8.81;100.00
68941;BME280;55982;51.476;7.552;2022-11-24T08:32:05;99035.88;;;8.77;100.00
68941;BME280;55982;51.476;7.552;2022-11-24T08:34:30;99038.41;;;8.78;100.00
68941;BME280;55982;51.476;7.552;2022-11-24T08:36:55;99037.63;;;8.76;100.00
68941;BME280;55982;51.476;7.552;2022-11-24T08:39:21;99039.56;;;8.71;100.00
68941;BME280;55982;51.476;7.552;2022-11-24T08:41:46;99036.53;;;8.60;100.00
68941;BME280;55982;51.476;7.552;2022-11-24T08:44:11;99036.06;;;8.49;100.00
68941;BME280;55982;51.476;7.552;2022-11-24T08:46:40;99054.59;;;8.42;100.00
68941;BME280;55982;51.476;7.552;2022-11-24T08:49:05;99060.78;;;8.39;100.00
68941;BME280;55982;51.476;7.552;2022-11-24T08:51:31;99046.59;;;8.46;100.00
68941;BME280;55982;51.476;7.552;2022-11-24T08:53:58;99059.41;;;8.52;100.00
68941;BME280;55982;51.476;7.552;2022-11-24T08:56:25;99057.47;;;8.57;100.00
68941;BME280;55982;51.476;7.552;2022-11-24T08:58:52;99067.69;;;8.63;100.00
68941;BME280;55982;51.476;7.552;2022-11-24T09:01:17;99059.63;;;8.69;100.00
68941;BME280;55982;51.476;7.552;2022-11-24T09:03:44;99072.59;;;8.71;100.00
68941;BME280;55982;51.476;7.552;2022-11-24T09:06:11;99073.47;;;8.71;100.00
68941;BME280;55982;51.476;7.552;2022-11-24T09:08:36;99073.09;;;8.80;100.00
68941;BME280;55982;51.476;7.552;2022-11-24T09:11:07;99078.09;;;8.86;100.00
68941;BME280;55982;51.476;7.552;2022-11-24T09:13:35;99082.41;;;8.87;100.00
68941;BME280;55982;51.476;7.552;2022-11-24T09:16:02;99087.44;;;8.92;100.00
68941;BME280;55982;51.476;7.552;2022-11-24T09:18:28;99095.69;;;9.03;100.00
68941;BME280;55982;51.476;7.552;2022-11-24T09:20:53;99090.31;;;9.07;100.00
68941;BME280;55982;51.476;7.552;2022-11-24T09:23:22;99099.72;;;9.11;100.00
68941;BME280;55982;51.476;7.552;2022-11-24T09:25:47;99105.31;;;9.02;100.00
68941;BME280;55982;51.476;7.552;2022-11-24T09:28:13;99110.75;;;8.96;100.00
68941;BME280;55982;51.476;7.552;2022-11-24T09:30:38;99123.66;;;8.76;100.00
68941;BME280;55982;51.476;7.552;2022-11-24T09:33:04;99124.16;;;8.64;100.00
68941;BME280;55982;51.476;7.552;2022-11-24T09:35:29;99122.88;;;8.51;100.00
68941;BME280;55982;51.476;7.552;2022-11-24T09:37:55;99137.38;;;8.35;100.00
68941;BME280;55982;51.476;7.552;2022-11-24T09:40:21;99151.28;;;8.34;100.00
68941;BME280;55982;51.476;7.552;2022-11-24T09:43:02;99144.25;;;8.36;100.00
68941;BME280;55982;51.476;7.552;2022-11-24T09:45:42;99145.84;;;8.40;100.00
68941;BME280;55982;51.476;7.552;2022-11-24T09:48:21;99142.03;;;8.50;100.00
68941;BME280;55982;51.476;7.552;2022-11-24T09:50:48;99149.44;;;8.61;100.00
68941;BME280;55982;51.476;7.552;2022-11-24T09:55:57;99142.50;;;8.84;100.00
68941;BME280;55982;51.476;7.552;2022-11-24T09:59:03;99147.72;;;8.84;100.00
68941;BME280;55982;51.476;7.552;2022-11-24T10:01:32;99159.09;;;8.82;100.00
68941;BME280;55982;51.476;7.552;2022-11-24T10:03:59;99160.81;;;8.83;100.00
68941;BME280;55982;51.476;7.552;2022-11-24T10:06:44;99156.34;;;8.86;100.00
68941;BME280;55982;51.476;7.552;2022-11-24T10:12:58;99163.16;;;8.90;100.00
68941;BME280;55982;51.476;7.552;2022-11-24T10:18:36;99167.44;;;9.14;100.00
68941;BME280;55982;51.476;7.552;2022-11-24T10:21:33;99171.63;;;9.18;100.00
68941;BME280;55982;51.476;7.552;2022-11-24T10:27:15;99181.38;;;9.37;100.00
68941;BME280;55982;51.476;7.552;2022-11-24T10:29:41;99181.25;;;9.40;100.00
68941;BME280;55982;51.476;7.552;2022-11-24T10:32:18;99185.13;;;9.53;100.00
68941;BME280;55982;51.476;7.552;2022-11-24T10:34:45;99188.63;;;9.52;100.00
68941;BME280;55982;51.476;7.552;2022-11-24T10:37:22;99190.34;;;9.53;100.00
68941;BME280;55982;51.476;7.552;2022-11-24T10:42:32;99186.56;;;9.60;100.00
68941;BME280;55982;51.476;7.552;2022-11-24T10:45:09;99190.81;;;9.62;100.00
68941;BME280;55982;51.476;7.552;2022-11-24T10:47:36;99201.59;;;9.53;100.00
68941;BME280;55982;51.476;7.552;2022-11-24T10:53:02;99209.88;;;9.43;100.00
68941;BME280;55982;51.476;7.552;2022-11-24T10:58:31;99217.50;;;9.47;100.00
68941;BME280;55982;51.476;7.552;2022-11-24T11:00:59;99206.00;;;9.53;100.00
68941;BME280;55982;51.476;7.552;2022-11-24T11:03:30;99221.41;;;9.59;100.00
68941;BME280;55982;51.476;7.552;2022-11-24T11:06:02;99224.81;;;9.61;100.00
68941;BME280;55982;51.476;7.552;2022-11-24T11:08:33;99224.81;;;9.61;100.00
68941;BME280;55982;51.476;7.552;2022-11-24T11:13:36;99225.00;;;9.56;100.00
68941;BME280;55982;51.476;7.552;2022-11-24T11:16:20;99233.34;;;9.66;100.00
68941;BME280;55982;51.476;7.552;2022-11-24T11:18:47;99225.84;;;10.00;100.00
68941;BME280;55982;51.476;7.552;2022-11-24T11:21:25;99228.47;;;10.00;100.00
68941;BME280;55982;51.476;7.552;2022-11-24T11:23:51;99236.50;;;10.17;100.00
68941;BME280;55982;51.476;7.552;2022-11-24T11:26:28;99225.41;;;10.32;100.00
68941;BME280;55982;51.476;7.552;2022-11-24T11:28:57;99234.31;;;10.68;100.00
68941;BME280;55982;51.476;7.552;2022-11-24T11:31:23;99244.88;;;10.87;100.00
68941;BME280;55982;51.476;7.552;2022-11-24T11:36:35;99247.50;;;11.05;100.00
68941;BME280;55982;51.476;7.552;2022-11-24T11:39:03;99253.91;;;11.19;100.00
68941;BME280;55982;51.476;7.552;2022-11-24T11:41:35;99250.56;;;11.15;100.00
68941;BME280;55982;51.476;7.552;2022-11-24T11:44:28;99254.66;;;11.02;100.00
68941;BME280;55982;51.476;7.552;2022-11-24T11:46:57;99260.41;;;10.90;100.00
68941;BME280;55982;51.476;7.552;2022-11-24T11:49:23;99249.88;;;10.91;100.00
68941;BME280;55982;51.476;7.552;2022-11-24T12:00:11;99271.47;;;10.96;100.00
68941;BME280;55982;51.476;7.552;2022-11-24T12:05:45;99272.13;;;11.01;100.00
68941;BME280;55982;51.476;7.552;2022-11-24T12:11:04;99276.59;;;10.79;100.00
68941;BME280;55982;51.476;7.552;2022-11-24T12:19:30;99273.06;;;10.60;100.00
68941;BME280;55982;51.476;7.552;2022-11-24T12:23:01;99274.34;;;10.70;100.00
68941;BME280;55982;51.476;7.552;2022-11-24T12:30:19;99268.72;;;10.99;100.00
68941;BME280;55982;51.476;7.552;2022-11-24T12:35:22;99267.19;;;10.75;100.00
68941;BME280;55982;51.476;7.552;2022-11-24T12:43:34;99281.50;;;10.45;100.00
68941;BME280;55982;51.476;7.552;2022-11-24T12:49:20;99286.22;;;10.37;100.00
68941;BME280;55982;51.476;7.552;2022-11-24T12:54:45;99281.66;;;10.62;100.00
68941;BME280;55982;51.476;7.552;2022-11-24T12:57:23;99278.66;;;10.91;100.00
68941;BME280;55982;51.476;7.552;2022-11-24T13:00:00;99280.00;;;10.81;100.00
68941;BME280;55982;51.476;7.552;2022-11-24T13:07:57;99276.13;;;10.90;100.00
68941;BME280;55982;51.476;7.552;2022-11-24T13:13:08;99275.53;;;11.03;100.00
68941;BME280;55982;51.476;7.552;2022-11-24T13:18:41;99281.28;;;10.71;100.00
68941;BME280;55982;51.476;7.552;2022-11-24T13:24:21;99272.09;;;10.41;100.00
68941;BME280;55982;51.476;7.552;2022-11-24T13:26:53;99278.91;;;10.45;100.00
68941;BME280;55982;51.476;7.552;2022-11-24T13:29:35;99272.22;;;10.38;100.00
68941;BME280;55982;51.476;7.552;2022-11-24T13:37:19;99273.44;;;10.08;100.00
68941;BME280;55982;51.476;7.552;2022-11-24T13:53:35;99286.09;;;9.97;100.00
68941;BME280;55982;51.476;7.552;2022-11-24T14:01:10;99288.16;;;9.89;100.00
68941;BME280;55982;51.476;7.552;2022-11-24T14:11:45;99299.16;;;9.97;100.00
68941;BME280;55982;51.476;7.552;2022-11-24T14:14:20;99298.47;;;9.92;100.00
68941;BME280;55982;51.476;7.552;2022-11-24T14:16:45;99296.66;;;9.94;100.00
68941;BME280;55982;51.476;7.552;2022-11-24T14:19:16;99287.91;;;9.95;100.00
68941;BME280;55982;51.476;7.552;2022-11-24T14:21:42;99290.75;;;9.89;100.00
68941;BME280;55982;51.476;7.552;2022-11-24T14:24:22;99298.81;;;9.83;100.00
68941;BME280;55982;51.476;7.552;2022-11-24T14:26:48;99299.06;;;9.77;100.00
68941;BME280;55982;51.476;7.552;2022-11-24T14:31:40;99306.78;;;9.57;100.00
68941;BME280;55982;51.476;7.552;2022-11-24T14:34:13;99311.69;;;9.43;100.00
68941;BME280;55982;51.476;7.552;2022-11-24T14:36:39;99309.28;;;9.37;100.00
68941;BME280;55982;51.476;7.552;2022-11-24T14:39:05;99310.88;;;9.41;100.00
68941;BME280;55982;51.476;7.552;2022-11-24T14:41:31;99313.88;;;9.30;100.00
68941;BME280;55982;51.476;7.552;2022-11-24T14:46:41;99315.28;;;9.15;100.00
68941;BME280;55982;51.476;7.552;2022-11-24T14:49:06;99314.59;;;9.10;100.00
68941;BME280;55982;51.476;7.552;2022-11-24T14:51:34;99316.88;;;9.19;100.00
68941;BME280;55982;51.476;7.552;2022-11-24T14:54:03;99321.34;;;9.16;100.00
68941;BME280;55982;51.476;7.552;2022-11-24T14:56:35;99317.28;;;9.07;100.00
68941;BME280;55982;51.476;7.552;2022-11-24T14:59:01;99318.56;;;8.96;100.00
68941;BME280;55982;51.476;7.552;2022-11-24T15:01:28;99323.25;;;8.86;100.00
68941;BME280;55982;51.476;7.552;2022-11-24T15:04:20;99319.84;;;8.84;100.00
68941;BME280;55982;51.476;7.552;2022-11-24T15:06:49;99322.97;;;8.69;100.00
68941;BME280;55982;51.476;7.552;2022-11-24T15:09:29;99315.75;;;8.51;100.00